Hauptseite
METAR-TAF:

METAR-TAF

Flughäfen :

Gibraltar, Gibraltar

Flughafen Gibraltar

Breite: 36-09N, Länge: 005-21W, Höhe: 5 m

Beobachtung

Neuester Wetterbericht von vor 51 Minuten, um 01:50 UTC
Wind 2 kt aus Nordwest
Temperatur 20°C
Luftfeuchtigkeit 94%
Luftdruck 1014 hPa
Sichtweite: 7000 m

METAR: LXGB 280150Z AUTO 32002KT 7000 // NCD 20/19 Q1014

Zeit: 04:41 (02:41 UTC)

Prognose

Neuester Wetterbericht von vor 9 Stunden und 33 Minuten, um 17:08 UTC
Gültige Prognose vom 27 um 18 UTC bis 27 um 22 UTC
Wind 8 kt aus Ost
Sichtweite: 6000 m
Leicht bewölkt in der Höhe von 1300 ft
trockener Dunst

TAF: LXGB 271708Z 2718/2722 08008KT 6000 HZ FEW013

Wetterbeobachtungen und Prognosen von mehr als 4000 Flughäfen (METAR und TAF Bericht).

Die verfügbaren Stationen werden durch gelbe und rote Markierungen auf der Karte dargestellt.

Führen Sie die Maus auf sie, um den Namen der Station zu sehen.

Darauf klicken, um die Beobachtung von Wetterbeobachtungen und Prognosen zu sehen.

Um die Karte zu ändern : klicken Sie auf den grünen Tasten mit einem schwarzen Kreuz Zum Vergrößern, auf den grünen Button mit einem Gedankenstrich zu verkleinern, oder auf die grünen Pfeile für benachbarte Karten.


METAR-TAF: